sensor_id;sensor_type;location;lat;lon;timestamp;P1;durP1;ratioP1;P2;durP2;ratioP2
4766;SDS011;2397;53.576;9.746;2023-05-10T00:00:12;13.63;;;3.53;;
4766;SDS011;2397;53.576;9.746;2023-05-10T00:02:39;3.63;;;3.37;;
4766;SDS011;2397;53.576;9.746;2023-05-10T00:05:07;4.80;;;3.83;;
4766;SDS011;2397;53.576;9.746;2023-05-10T00:07:33;4.90;;;3.47;;
4766;SDS011;2397;53.576;9.746;2023-05-10T00:10:00;9.60;;;2.87;;
4766;SDS011;2397;53.576;9.746;2023-05-10T00:12:26;4.30;;;3.70;;
4766;SDS011;2397;53.576;9.746;2023-05-10T00:14:53;4.60;;;4.10;;
4766;SDS011;2397;53.576;9.746;2023-05-10T00:17:19;5.90;;;3.80;;
4766;SDS011;2397;53.576;9.746;2023-05-10T00:19:46;9.43;;;3.80;;
4766;SDS011;2397;53.576;9.746;2023-05-10T00:22:12;3.70;;;3.40;;
4766;SDS011;2397;53.576;9.746;2023-05-10T00:24:39;3.47;;;3.17;;
4766;SDS011;2397;53.576;9.746;2023-05-10T00:27:06;7.30;;;4.00;;
4766;SDS011;2397;53.576;9.746;2023-05-10T00:29:33;6.47;;;4.20;;
4766;SDS011;2397;53.576;9.746;2023-05-10T00:32:00;4.00;;;3.67;;
4766;SDS011;2397;53.576;9.746;2023-05-10T00:34:26;4.13;;;3.73;;
4766;SDS011;2397;53.576;9.746;2023-05-10T00:36:53;4.50;;;3.20;;
4766;SDS011;2397;53.576;9.746;2023-05-10T00:39:20;6.37;;;4.10;;
4766;SDS011;2397;53.576;9.746;2023-05-10T00:41:46;4.37;;;3.97;;
4766;SDS011;2397;53.576;9.746;2023-05-10T00:44:14;3.80;;;3.43;;
4766;SDS011;2397;53.576;9.746;2023-05-10T00:46:41;4.03;;;3.50;;
4766;SDS011;2397;53.576;9.746;2023-05-10T00:49:08;4.80;;;3.60;;
4766;SDS011;2397;53.576;9.746;2023-05-10T00:51:34;5.30;;;3.60;;
4766;SDS011;2397;53.576;9.746;2023-05-10T00:54:01;6.70;;;4.03;;
4766;SDS011;2397;53.576;9.746;2023-05-10T00:56:28;4.27;;;3.87;;
4766;SDS011;2397;53.576;9.746;2023-05-10T00:58:56;4.80;;;4.03;;
4766;SDS011;2397;53.576;9.746;2023-05-10T01:01:23;4.10;;;3.80;;
4766;SDS011;2397;53.576;9.746;2023-05-10T01:03:50;5.07;;;4.30;;
4766;SDS011;2397;53.576;9.746;2023-05-10T01:06:17;6.17;;;3.80;;
4766;SDS011;2397;53.576;9.746;2023-05-10T01:08:44;4.50;;;4.10;;
4766;SDS011;2397;53.576;9.746;2023-05-10T01:11:10;4.60;;;3.53;;
4766;SDS011;2397;53.576;9.746;2023-05-10T01:13:37;4.53;;;4.10;;
4766;SDS011;2397;53.576;9.746;2023-05-10T01:16:07;5.03;;;4.23;;
4766;SDS011;2397;53.576;9.746;2023-05-10T01:18:35;5.43;;;3.93;;
4766;SDS011;2397;53.576;9.746;2023-05-10T01:21:11;4.50;;;4.10;;
4766;SDS011;2397;53.576;9.746;2023-05-10T01:23:47;6.43;;;3.93;;
4766;SDS011;2397;53.576;9.746;2023-05-10T01:37:25;4.47;;;4.07;;
4766;SDS011;2397;53.576;9.746;2023-05-10T01:40:26;4.53;;;4.10;;
4766;SDS011;2397;53.576;9.746;2023-05-10T01:43:08;6.13;;;4.30;;
4766;SDS011;2397;53.576;9.746;2023-05-10T01:45:57;4.47;;;4.10;;
4766;SDS011;2397;53.576;9.746;2023-05-10T01:48:30;6.67;;;4.53;;
4766;SDS011;2397;53.576;9.746;2023-05-10T01:50:59;5.93;;;4.20;;
4766;SDS011;2397;53.576;9.746;2023-05-10T01:53:26;5.47;;;4.93;;
4766;SDS011;2397;53.576;9.746;2023-05-10T01:55:54;5.90;;;4.10;;
4766;SDS011;2397;53.576;9.746;2023-05-10T01:58:30;5.70;;;4.10;;
4766;SDS011;2397;53.576;9.746;2023-05-10T02:00:59;6.63;;;4.30;;
4766;SDS011;2397;53.576;9.746;2023-05-10T02:03:29;5.07;;;4.57;;
4766;SDS011;2397;53.576;9.746;2023-05-10T02:05:58;4.57;;;4.13;;
4766;SDS011;2397;53.576;9.746;2023-05-10T02:08:25;4.97;;;4.57;;
4766;SDS011;2397;53.576;9.746;2023-05-10T02:10:53;7.60;;;4.87;;
4766;SDS011;2397;53.576;9.746;2023-05-10T02:13:23;5.97;;;5.47;;
4766;SDS011;2397;53.576;9.746;2023-05-10T02:15:51;5.40;;;4.00;;
4766;SDS011;2397;53.576;9.746;2023-05-10T02:18:19;8.73;;;4.07;;
4766;SDS011;2397;53.576;9.746;2023-05-10T02:20:48;9.90;;;4.60;;
4766;SDS011;2397;53.576;9.746;2023-05-10T02:23:14;4.87;;;3.73;;
4766;SDS011;2397;53.576;9.746;2023-05-10T02:25:43;5.77;;;4.43;;
4766;SDS011;2397;53.576;9.746;2023-05-10T02:28:12;4.50;;;4.10;;
4766;SDS011;2397;53.576;9.746;2023-05-10T02:30:40;5.97;;;4.83;;
4766;SDS011;2397;53.576;9.746;2023-05-10T02:33:07;6.90;;;4.40;;
4766;SDS011;2397;53.576;9.746;2023-05-10T02:35:34;6.13;;;4.37;;
4766;SDS011;2397;53.576;9.746;2023-05-10T02:38:02;4.60;;;4.20;;
4766;SDS011;2397;53.576;9.746;2023-05-10T02:40:30;5.77;;;4.87;;
4766;SDS011;2397;53.576;9.746;2023-05-10T02:42:58;4.80;;;4.33;;
4766;SDS011;2397;53.576;9.746;2023-05-10T02:45:27;4.63;;;4.07;;
4766;SDS011;2397;53.576;9.746;2023-05-10T02:47:56;10.83;;;4.10;;
4766;SDS011;2397;53.576;9.746;2023-05-10T02:50:23;4.53;;;4.13;;
4766;SDS011;2397;53.576;9.746;2023-05-10T02:52:54;9.17;;;4.53;;
4766;SDS011;2397;53.576;9.746;2023-05-10T02:55:26;5.57;;;5.07;;
4766;SDS011;2397;53.576;9.746;2023-05-10T02:57:59;6.10;;;4.47;;
4766;SDS011;2397;53.576;9.746;2023-05-10T03:00:27;7.90;;;4.80;;
4766;SDS011;2397;53.576;9.746;2023-05-10T03:02:54;5.03;;;4.57;;
4766;SDS011;2397;53.576;9.746;2023-05-10T03:05:21;4.90;;;4.40;;
4766;SDS011;2397;53.576;9.746;2023-05-10T03:07:48;5.03;;;4.63;;
4766;SDS011;2397;53.576;9.746;2023-05-10T03:10:14;4.80;;;4.40;;
4766;SDS011;2397;53.576;9.746;2023-05-10T03:18:07;6.60;;;4.80;;
4766;SDS011;2397;53.576;9.746;2023-05-10T03:20:39;4.60;;;4.17;;
4766;SDS011;2397;53.576;9.746;2023-05-10T03:23:12;4.80;;;4.40;;
4766;SDS011;2397;53.576;9.746;2023-05-10T03:25:48;6.03;;;4.57;;
4766;SDS011;2397;53.576;9.746;2023-05-10T03:28:15;6.07;;;4.57;;
4766;SDS011;2397;53.576;9.746;2023-05-10T03:30:44;4.77;;;4.23;;
4766;SDS011;2397;53.576;9.746;2023-05-10T03:33:12;5.23;;;4.70;;
4766;SDS011;2397;53.576;9.746;2023-05-10T03:35:42;5.80;;;5.10;;
4766;SDS011;2397;53.576;9.746;2023-05-10T03:38:10;8.90;;;5.07;;
4766;SDS011;2397;53.576;9.746;2023-05-10T03:40:36;6.20;;;4.67;;
4766;SDS011;2397;53.576;9.746;2023-05-10T03:43:03;6.60;;;4.70;;
4766;SDS011;2397;53.576;9.746;2023-05-10T03:45:30;7.97;;;4.73;;
4766;SDS011;2397;53.576;9.746;2023-05-10T03:47:58;6.23;;;4.53;;
4766;SDS011;2397;53.576;9.746;2023-05-10T03:50:25;6.40;;;4.50;;
4766;SDS011;2397;53.576;9.746;2023-05-10T03:52:52;5.40;;;4.90;;
4766;SDS011;2397;53.576;9.746;2023-05-10T03:55:20;5.73;;;4.63;;
4766;SDS011;2397;53.576;9.746;2023-05-10T03:57:47;5.10;;;4.60;;
4766;SDS011;2397;53.576;9.746;2023-05-10T04:00:15;6.97;;;4.50;;
4766;SDS011;2397;53.576;9.746;2023-05-10T04:02:46;6.27;;;4.83;;
4766;SDS011;2397;53.576;9.746;2023-05-10T04:05:17;6.50;;;5.70;;
4766;SDS011;2397;53.576;9.746;2023-05-10T04:07:44;4.80;;;4.40;;
4766;SDS011;2397;53.576;9.746;2023-05-10T04:10:11;7.20;;;5.13;;
4766;SDS011;2397;53.576;9.746;2023-05-10T04:12:37;8.40;;;5.33;;
4766;SDS011;2397;53.576;9.746;2023-05-10T04:15:04;5.23;;;4.53;;
4766;SDS011;2397;53.576;9.746;2023-05-10T04:17:31;6.13;;;4.60;;
4766;SDS011;2397;53.576;9.746;2023-05-10T04:19:58;4.97;;;4.50;;
4766;SDS011;2397;53.576;9.746;2023-05-10T04:22:24;7.70;;;4.80;;
4766;SDS011;2397;53.576;9.746;2023-05-10T04:24:51;11.03;;;4.90;;
4766;SDS011;2397;53.576;9.746;2023-05-10T04:27:17;6.90;;;4.20;;
4766;SDS011;2397;53.576;9.746;2023-05-10T04:29:44;5.37;;;4.87;;
4766;SDS011;2397;53.576;9.746;2023-05-10T04:32:10;7.00;;;5.13;;
4766;SDS011;2397;53.576;9.746;2023-05-10T04:34:37;8.13;;;5.17;;
4766;SDS011;2397;53.576;9.746;2023-05-10T04:37:03;5.90;;;5.17;;
4766;SDS011;2397;53.576;9.746;2023-05-10T04:39:30;7.20;;;5.33;;
4766;SDS011;2397;53.576;9.746;2023-05-10T04:41:57;5.60;;;4.60;;
4766;SDS011;2397;53.576;9.746;2023-05-10T04:44:23;5.90;;;5.00;;
4766;SDS011;2397;53.576;9.746;2023-05-10T04:46:50;5.67;;;4.63;;
4766;SDS011;2397;53.576;9.746;2023-05-10T04:49:16;6.40;;;4.50;;
4766;SDS011;2397;53.576;9.746;2023-05-10T04:51:44;6.40;;;4.50;;
4766;SDS011;2397;53.576;9.746;2023-05-10T04:54:10;6.50;;;5.00;;
4766;SDS011;2397;53.576;9.746;2023-05-10T04:56:37;5.83;;;5.10;;
4766;SDS011;2397;53.576;9.746;2023-05-10T04:59:03;11.73;;;4.60;;
4766;SDS011;2397;53.576;9.746;2023-05-10T05:01:30;6.77;;;5.13;;
4766;SDS011;2397;53.576;9.746;2023-05-10T05:03:56;5.40;;;4.90;;
4766;SDS011;2397;53.576;9.746;2023-05-10T05:06:23;6.77;;;4.50;;
4766;SDS011;2397;53.576;9.746;2023-05-10T05:08:51;4.97;;;4.57;;
4766;SDS011;2397;53.576;9.746;2023-05-10T05:11:17;5.70;;;4.77;;
4766;SDS011;2397;53.576;9.746;2023-05-10T05:13:44;7.43;;;4.80;;
4766;SDS011;2397;53.576;9.746;2023-05-10T05:16:10;7.13;;;4.40;;
4766;SDS011;2397;53.576;9.746;2023-05-10T05:18:37;7.30;;;4.90;;
4766;SDS011;2397;53.576;9.746;2023-05-10T05:21:14;5.30;;;4.83;;
4766;SDS011;2397;53.576;9.746;2023-05-10T05:23:42;5.23;;;4.57;;
4766;SDS011;2397;53.576;9.746;2023-05-10T05:26:09;6.07;;;5.30;;
4766;SDS011;2397;53.576;9.746;2023-05-10T05:28:37;8.13;;;4.60;;
4766;SDS011;2397;53.576;9.746;2023-05-10T05:31:04;5.93;;;5.13;;
4766;SDS011;2397;53.576;9.746;2023-05-10T05:33:32;5.33;;;4.03;;
4766;SDS011;2397;53.576;9.746;2023-05-10T05:36:05;8.17;;;4.73;;
4766;SDS011;2397;53.576;9.746;2023-05-10T05:38:32;4.83;;;4.43;;
4766;SDS011;2397;53.576;9.746;2023-05-10T05:40:59;5.80;;;5.20;;
4766;SDS011;2397;53.576;9.746;2023-05-10T05:43:25;5.80;;;5.20;;
4766;SDS011;2397;53.576;9.746;2023-05-10T05:45:52;9.27;;;5.27;;
4766;SDS011;2397;53.576;9.746;2023-05-10T05:48:24;6.23;;;5.30;;
4766;SDS011;2397;53.576;9.746;2023-05-10T05:50:53;6.37;;;4.90;;
4766;SDS011;2397;53.576;9.746;2023-05-10T05:53:21;5.43;;;4.80;;
4766;SDS011;2397;53.576;9.746;2023-05-10T05:55:54;7.23;;;4.80;;
4766;SDS011;2397;53.576;9.746;2023-05-10T05:58:22;5.30;;;4.80;;
4766;SDS011;2397;53.576;9.746;2023-05-10T06:00:48;6.10;;;4.73;;
4766;SDS011;2397;53.576;9.746;2023-05-10T06:03:15;6.77;;;4.77;;
4766;SDS011;2397;53.576;9.746;2023-05-10T06:05:42;4.93;;;4.47;;
4766;SDS011;2397;53.576;9.746;2023-05-10T06:08:08;5.47;;;5.00;;
4766;SDS011;2397;53.576;9.746;2023-05-10T06:10:35;6.03;;;4.80;;
4766;SDS011;2397;53.576;9.746;2023-05-10T06:13:02;7.10;;;4.90;;
4766;SDS011;2397;53.576;9.746;2023-05-10T06:15:28;6.00;;;5.40;;
4766;SDS011;2397;53.576;9.746;2023-05-10T06:17:55;8.33;;;4.80;;
4766;SDS011;2397;53.576;9.746;2023-05-10T06:20:22;9.00;;;5.00;;
4766;SDS011;2397;53.576;9.746;2023-05-10T06:22:49;5.20;;;4.70;;
4766;SDS011;2397;53.576;9.746;2023-05-10T06:25:15;5.27;;;4.80;;
4766;SDS011;2397;53.576;9.746;2023-05-10T06:27:44;5.60;;;5.07;;
4766;SDS011;2397;53.576;9.746;2023-05-10T06:30:16;4.80;;;4.30;;
4766;SDS011;2397;53.576;9.746;2023-05-10T06:32:42;6.10;;;4.90;;
4766;SDS011;2397;53.576;9.746;2023-05-10T06:35:10;5.20;;;4.70;;
4766;SDS011;2397;53.576;9.746;2023-05-10T06:37:36;5.00;;;4.50;;
4766;SDS011;2397;53.576;9.746;2023-05-10T06:40:03;4.70;;;4.30;;
4766;SDS011;2397;53.576;9.746;2023-05-10T06:42:31;4.40;;;4.00;;
4766;SDS011;2397;53.576;9.746;2023-05-10T06:44:57;6.07;;;5.17;;
4766;SDS011;2397;53.576;9.746;2023-05-10T06:47:24;10.37;;;4.90;;
4766;SDS011;2397;53.576;9.746;2023-05-10T06:49:51;4.80;;;4.40;;
4766;SDS011;2397;53.576;9.746;2023-05-10T06:52:17;5.40;;;4.60;;
4766;SDS011;2397;53.576;9.746;2023-05-10T06:54:43;11.53;;;4.67;;
4766;SDS011;2397;53.576;9.746;2023-05-10T06:57:10;5.00;;;4.60;;
4766;SDS011;2397;53.576;9.746;2023-05-10T06:59:56;4.97;;;4.57;;
4766;SDS011;2397;53.576;9.746;2023-05-10T07:02:22;7.83;;;4.83;;
4766;SDS011;2397;53.576;9.746;2023-05-10T07:04:49;7.40;;;4.80;;
4766;SDS011;2397;53.576;9.746;2023-05-10T07:07:16;7.73;;;5.50;;
4766;SDS011;2397;53.576;9.746;2023-05-10T07:09:42;10.27;;;4.43;;
4766;SDS011;2397;53.576;9.746;2023-05-10T07:12:09;4.67;;;4.27;;
4766;SDS011;2397;53.576;9.746;2023-05-10T07:14:40;5.33;;;4.90;;
4766;SDS011;2397;53.576;9.746;2023-05-10T07:17:06;7.33;;;5.87;;
4766;SDS011;2397;53.576;9.746;2023-05-10T07:19:33;4.90;;;4.50;;
4766;SDS011;2397;53.576;9.746;2023-05-10T07:21:59;5.63;;;4.57;;
4766;SDS011;2397;53.576;9.746;2023-05-10T07:24:26;6.27;;;5.50;;
4766;SDS011;2397;53.576;9.746;2023-05-10T07:26:53;5.40;;;4.53;;
4766;SDS011;2397;53.576;9.746;2023-05-10T07:29:19;6.90;;;4.17;;
4766;SDS011;2397;53.576;9.746;2023-05-10T07:31:45;5.53;;;5.03;;
4766;SDS011;2397;53.576;9.746;2023-05-10T07:34:12;4.60;;;3.87;;
4766;SDS011;2397;53.576;9.746;2023-05-10T07:36:38;5.27;;;4.40;;
4766;SDS011;2397;53.576;9.746;2023-05-10T07:39:05;4.37;;;4.00;;
4766;SDS011;2397;53.576;9.746;2023-05-10T07:41:32;4.40;;;4.10;;
4766;SDS011;2397;53.576;9.746;2023-05-10T07:44:00;5.03;;;4.30;;
4766;SDS011;2397;53.576;9.746;2023-05-10T07:46:27;6.40;;;4.43;;
4766;SDS011;2397;53.576;9.746;2023-05-10T07:48:54;4.60;;;4.17;;
4766;SDS011;2397;53.576;9.746;2023-05-10T07:51:21;5.93;;;5.43;;
4766;SDS011;2397;53.576;9.746;2023-05-10T07:53:48;5.00;;;4.00;;
4766;SDS011;2397;53.576;9.746;2023-05-10T07:56:22;7.53;;;4.70;;
4766;SDS011;2397;53.576;9.746;2023-05-10T07:58:55;4.60;;;4.30;;
4766;SDS011;2397;53.576;9.746;2023-05-10T08:01:23;4.90;;;4.50;;
4766;SDS011;2397;53.576;9.746;2023-05-10T08:03:50;6.03;;;4.50;;
4766;SDS011;2397;53.576;9.746;2023-05-10T08:06:17;9.20;;;4.40;;
4766;SDS011;2397;53.576;9.746;2023-05-10T08:08:45;5.07;;;4.50;;
4766;SDS011;2397;53.576;9.746;2023-05-10T08:11:16;7.27;;;4.20;;
4766;SDS011;2397;53.576;9.746;2023-05-10T08:13:44;11.03;;;4.80;;
4766;SDS011;2397;53.576;9.746;2023-05-10T08:16:11;5.47;;;4.23;;
4766;SDS011;2397;53.576;9.746;2023-05-10T08:18:38;5.87;;;5.37;;
4766;SDS011;2397;53.576;9.746;2023-05-10T08:21:05;5.73;;;5.23;;
4766;SDS011;2397;53.576;9.746;2023-05-10T08:23:31;5.37;;;4.87;;
4766;SDS011;2397;53.576;9.746;2023-05-10T08:25:58;5.63;;;4.87;;
4766;SDS011;2397;53.576;9.746;2023-05-10T08:28:26;7.30;;;4.90;;
4766;SDS011;2397;53.576;9.746;2023-05-10T08:30:53;5.00;;;4.60;;
4766;SDS011;2397;53.576;9.746;2023-05-10T08:33:19;6.10;;;5.23;;
4766;SDS011;2397;53.576;9.746;2023-05-10T08:35:46;5.40;;;5.00;;
4766;SDS011;2397;53.576;9.746;2023-05-10T08:38:13;6.03;;;5.10;;
4766;SDS011;2397;53.576;9.746;2023-05-10T08:40:41;5.40;;;4.90;;
4766;SDS011;2397;53.576;9.746;2023-05-10T08:43:10;5.60;;;5.20;;
4766;SDS011;2397;53.576;9.746;2023-05-10T08:45:39;6.37;;;5.17;;
4766;SDS011;2397;53.576;9.746;2023-05-10T08:48:06;5.20;;;4.70;;
4766;SDS011;2397;53.576;9.746;2023-05-10T08:50:39;5.90;;;5.30;;
4766;SDS011;2397;53.576;9.746;2023-05-10T08:53:11;6.27;;;5.70;;
4766;SDS011;2397;53.576;9.746;2023-05-10T08:55:39;5.10;;;4.53;;
4766;SDS011;2397;53.576;9.746;2023-05-10T08:58:06;6.93;;;5.07;;
4766;SDS011;2397;53.576;9.746;2023-05-10T09:00:33;9.10;;;6.03;;
4766;SDS011;2397;53.576;9.746;2023-05-10T09:03:00;5.93;;;5.33;;
4766;SDS011;2397;53.576;9.746;2023-05-10T09:05:27;6.87;;;6.27;;
4766;SDS011;2397;53.576;9.746;2023-05-10T09:07:54;8.33;;;5.83;;
4766;SDS011;2397;53.576;9.746;2023-05-10T09:10:21;7.40;;;6.33;;
4766;SDS011;2397;53.576;9.746;2023-05-10T09:12:50;6.07;;;5.40;;
4766;SDS011;2397;53.576;9.746;2023-05-10T09:15:17;8.17;;;6.27;;
4766;SDS011;2397;53.576;9.746;2023-05-10T09:17:46;8.33;;;5.20;;
4766;SDS011;2397;53.576;9.746;2023-05-10T09:20:13;6.53;;;5.60;;
4766;SDS011;2397;53.576;9.746;2023-05-10T09:22:40;6.60;;;6.00;;
4766;SDS011;2397;53.576;9.746;2023-05-10T09:25:08;7.40;;;6.77;;
4766;SDS011;2397;53.576;9.746;2023-05-10T09:27:40;7.17;;;6.57;;
4766;SDS011;2397;53.576;9.746;2023-05-10T09:30:08;6.87;;;6.27;;
4766;SDS011;2397;53.576;9.746;2023-05-10T09:32:36;9.33;;;7.23;;
4766;SDS011;2397;53.576;9.746;2023-05-10T09:35:09;9.57;;;6.60;;
4766;SDS011;2397;53.576;9.746;2023-05-10T09:37:42;9.30;;;7.10;;
4766;SDS011;2397;53.576;9.746;2023-05-10T09:40:13;7.63;;;7.00;;
4766;SDS011;2397;53.576;9.746;2023-05-10T09:45:24;8.50;;;7.60;;
4766;SDS011;2397;53.576;9.746;2023-05-10T09:47:52;8.73;;;6.60;;
4766;SDS011;2397;53.576;9.746;2023-05-10T09:50:20;10.17;;;7.23;;
4766;SDS011;2397;53.576;9.746;2023-05-10T09:52:48;8.13;;;7.10;;
4766;SDS011;2397;53.576;9.746;2023-05-10T09:55:18;9.27;;;8.47;;
4766;SDS011;2397;53.576;9.746;2023-05-10T09:57:46;8.60;;;7.90;;
4766;SDS011;2397;53.576;9.746;2023-05-10T10:00:20;8.73;;;7.83;;
4766;SDS011;2397;53.576;9.746;2023-05-10T10:02:48;8.60;;;7.80;;
4766;SDS011;2397;53.576;9.746;2023-05-10T10:05:27;8.30;;;7.47;;
4766;SDS011;2397;53.576;9.746;2023-05-10T10:07:57;8.90;;;7.97;;
4766;SDS011;2397;53.576;9.746;2023-05-10T10:10:26;9.47;;;8.00;;
4766;SDS011;2397;53.576;9.746;2023-05-10T10:12:53;9.27;;;8.07;;
4766;SDS011;2397;53.576;9.746;2023-05-10T10:15:21;9.20;;;8.30;;
4766;SDS011;2397;53.576;9.746;2023-05-10T10:17:48;10.23;;;8.60;;
4766;SDS011;2397;53.576;9.746;2023-05-10T10:20:17;9.03;;;8.03;;
4766;SDS011;2397;53.576;9.746;2023-05-10T10:22:46;10.10;;;9.10;;
4766;SDS011;2397;53.576;9.746;2023-05-10T10:25:14;9.17;;;8.37;;
4766;SDS011;2397;53.576;9.746;2023-05-10T10:33:13;9.13;;;8.23;;
4766;SDS011;2397;53.576;9.746;2023-05-10T10:36:02;8.63;;;7.73;;
4766;SDS011;2397;53.576;9.746;2023-05-10T10:52:27;10.80;;;9.50;;
4766;SDS011;2397;53.576;9.746;2023-05-10T10:55:08;10.30;;;9.30;;
4766;SDS011;2397;53.576;9.746;2023-05-10T10:57:48;11.13;;;9.83;;
4766;SDS011;2397;53.576;9.746;2023-05-10T11:00:30;10.63;;;9.53;;
4766;SDS011;2397;53.576;9.746;2023-05-10T11:03:04;10.33;;;9.33;;
4766;SDS011;2397;53.576;9.746;2023-05-10T11:05:34;10.70;;;9.70;;
4766;SDS011;2397;53.576;9.746;2023-05-10T11:10:38;10.73;;;9.63;;
4766;SDS011;2397;53.576;9.746;2023-05-10T11:13:06;13.80;;;10.17;;
4766;SDS011;2397;53.576;9.746;2023-05-10T11:18:00;16.70;;;10.13;;
4766;SDS011;2397;53.576;9.746;2023-05-10T11:20:44;10.60;;;9.50;;
4766;SDS011;2397;53.576;9.746;2023-05-10T11:23:16;10.20;;;9.20;;
4766;SDS011;2397;53.576;9.746;2023-05-10T11:25:44;10.70;;;9.70;;
4766;SDS011;2397;53.576;9.746;2023-05-10T11:28:12;10.07;;;9.07;;
4766;SDS011;2397;53.576;9.746;2023-05-10T11:30:39;10.40;;;9.30;;
4766;SDS011;2397;53.576;9.746;2023-05-10T11:33:07;10.07;;;9.17;;
4766;SDS011;2397;53.576;9.746;2023-05-10T11:35:38;10.80;;;9.80;;
4766;SDS011;2397;53.576;9.746;2023-05-10T11:38:09;10.20;;;9.20;;
4766;SDS011;2397;53.576;9.746;2023-05-10T11:40:36;10.17;;;9.13;;
4766;SDS011;2397;53.576;9.746;2023-05-10T11:43:04;12.07;;;9.63;;
4766;SDS011;2397;53.576;9.746;2023-05-10T11:45:32;10.07;;;9.10;;
4766;SDS011;2397;53.576;9.746;2023-05-10T11:48:00;10.63;;;9.53;;
4766;SDS011;2397;53.576;9.746;2023-05-10T11:50:27;13.03;;;10.23;;
4766;SDS011;2397;53.576;9.746;2023-05-10T11:52:55;11.20;;;9.50;;
4766;SDS011;2397;53.576;9.746;2023-05-10T11:55:22;11.93;;;10.60;;
4766;SDS011;2397;53.576;9.746;2023-05-10T11:57:53;11.63;;;10.43;;
4766;SDS011;2397;53.576;9.746;2023-05-10T12:00:20;12.10;;;11.00;;
4766;SDS011;2397;53.576;9.746;2023-05-10T12:02:48;11.83;;;10.70;;
4766;SDS011;2397;53.576;9.746;2023-05-10T12:05:15;11.90;;;10.70;;
4766;SDS011;2397;53.576;9.746;2023-05-10T12:07:42;12.67;;;11.37;;
4766;SDS011;2397;53.576;9.746;2023-05-10T12:10:12;11.30;;;10.20;;
4766;SDS011;2397;53.576;9.746;2023-05-10T12:12:46;10.30;;;9.40;;
4766;SDS011;2397;53.576;9.746;2023-05-10T12:15:22;10.90;;;9.90;;
4766;SDS011;2397;53.576;9.746;2023-05-10T12:17:50;12.87;;;9.53;;
4766;SDS011;2397;53.576;9.746;2023-05-10T12:20:21;10.57;;;9.60;;
4766;SDS011;2397;53.576;9.746;2023-05-10T12:22:53;10.90;;;9.53;;
4766;SDS011;2397;53.576;9.746;2023-05-10T12:25:21;11.07;;;9.80;;
4766;SDS011;2397;53.576;9.746;2023-05-10T12:27:53;10.57;;;9.27;;
4766;SDS011;2397;53.576;9.746;2023-05-10T12:30:25;10.73;;;8.97;;
4766;SDS011;2397;53.576;9.746;2023-05-10T12:32:59;10.70;;;8.10;;
4766;SDS011;2397;53.576;9.746;2023-05-10T12:35:44;10.00;;;9.07;;
4766;SDS011;2397;53.576;9.746;2023-05-10T12:40:56;8.40;;;7.60;;
4766;SDS011;2397;53.576;9.746;2023-05-10T12:43:24;8.00;;;7.30;;
4766;SDS011;2397;53.576;9.746;2023-05-10T12:45:51;8.50;;;7.77;;
4766;SDS011;2397;53.576;9.746;2023-05-10T12:48:17;8.40;;;7.60;;
4766;SDS011;2397;53.576;9.746;2023-05-10T12:50:45;9.40;;;7.67;;
4766;SDS011;2397;53.576;9.746;2023-05-10T12:53:13;7.23;;;6.63;;
4766;SDS011;2397;53.576;9.746;2023-05-10T12:55:43;7.90;;;7.20;;
4766;SDS011;2397;53.576;9.746;2023-05-10T12:58:10;8.40;;;6.60;;
4766;SDS011;2397;53.576;9.746;2023-05-10T13:00:46;8.43;;;6.43;;
4766;SDS011;2397;53.576;9.746;2023-05-10T13:03:13;8.23;;;6.47;;
4766;SDS011;2397;53.576;9.746;2023-05-10T13:05:39;7.97;;;7.27;;
4766;SDS011;2397;53.576;9.746;2023-05-10T13:08:06;9.53;;;7.37;;
4766;SDS011;2397;53.576;9.746;2023-05-10T13:10:32;8.20;;;7.43;;
4766;SDS011;2397;53.576;9.746;2023-05-10T13:12:59;7.60;;;7.00;;
4766;SDS011;2397;53.576;9.746;2023-05-10T13:15:26;6.77;;;6.17;;
4766;SDS011;2397;53.576;9.746;2023-05-10T13:17:53;6.93;;;6.43;;
4766;SDS011;2397;53.576;9.746;2023-05-10T13:20:20;6.90;;;6.30;;
4766;SDS011;2397;53.576;9.746;2023-05-10T13:22:47;7.23;;;6.70;;
4766;SDS011;2397;53.576;9.746;2023-05-10T13:25:15;7.30;;;6.57;;
4766;SDS011;2397;53.576;9.746;2023-05-10T13:27:42;7.17;;;6.57;;
4766;SDS011;2397;53.576;9.746;2023-05-10T13:30:09;9.30;;;7.43;;
4766;SDS011;2397;53.576;9.746;2023-05-10T13:32:35;7.50;;;6.90;;
4766;SDS011;2397;53.576;9.746;2023-05-10T13:35:02;7.40;;;6.80;;
4766;SDS011;2397;53.576;9.746;2023-05-10T13:37:30;7.33;;;6.40;;
4766;SDS011;2397;53.576;9.746;2023-05-10T13:39:57;7.40;;;6.77;;
4766;SDS011;2397;53.576;9.746;2023-05-10T13:42:23;7.20;;;6.60;;
4766;SDS011;2397;53.576;9.746;2023-05-10T13:44:50;8.10;;;7.30;;
4766;SDS011;2397;53.576;9.746;2023-05-10T13:47:17;8.23;;;7.00;;
4766;SDS011;2397;53.576;9.746;2023-05-10T13:49:44;7.47;;;6.77;;
4766;SDS011;2397;53.576;9.746;2023-05-10T13:52:10;12.80;;;8.83;;
4766;SDS011;2397;53.576;9.746;2023-05-10T13:54:38;8.70;;;7.80;;
4766;SDS011;2397;53.576;9.746;2023-05-10T13:57:05;8.87;;;8.07;;
4766;SDS011;2397;53.576;9.746;2023-05-10T13:59:32;8.53;;;7.80;;
4766;SDS011;2397;53.576;9.746;2023-05-10T14:01:59;8.23;;;7.47;;
4766;SDS011;2397;53.576;9.746;2023-05-10T14:04:26;9.03;;;8.13;;
4766;SDS011;2397;53.576;9.746;2023-05-10T14:06:52;8.47;;;7.80;;
4766;SDS011;2397;53.576;9.746;2023-05-10T14:09:19;8.67;;;7.90;;
4766;SDS011;2397;53.576;9.746;2023-05-10T14:11:46;9.70;;;8.73;;
4766;SDS011;2397;53.576;9.746;2023-05-10T14:14:12;8.87;;;8.07;;
4766;SDS011;2397;53.576;9.746;2023-05-10T14:16:43;9.50;;;8.57;;
4766;SDS011;2397;53.576;9.746;2023-05-10T14:19:12;8.77;;;7.83;;
4766;SDS011;2397;53.576;9.746;2023-05-10T14:21:38;8.57;;;7.87;;
4766;SDS011;2397;53.576;9.746;2023-05-10T14:24:05;9.10;;;8.30;;
4766;SDS011;2397;53.576;9.746;2023-05-10T14:26:33;7.90;;;7.20;;
4766;SDS011;2397;53.576;9.746;2023-05-10T14:29:00;9.10;;;8.20;;
4766;SDS011;2397;53.576;9.746;2023-05-10T14:31:27;9.33;;;8.43;;
4766;SDS011;2397;53.576;9.746;2023-05-10T14:33:56;8.80;;;8.00;;
4766;SDS011;2397;53.576;9.746;2023-05-10T14:36:23;8.03;;;7.33;;
4766;SDS011;2397;53.576;9.746;2023-05-10T14:38:50;9.33;;;8.20;;
4766;SDS011;2397;53.576;9.746;2023-05-10T14:41:17;8.90;;;8.20;;
4766;SDS011;2397;53.576;9.746;2023-05-10T14:43:44;7.97;;;7.23;;
4766;SDS011;2397;53.576;9.746;2023-05-10T14:46:11;8.87;;;8.10;;
4766;SDS011;2397;53.576;9.746;2023-05-10T14:48:37;7.93;;;7.33;;
4766;SDS011;2397;53.576;9.746;2023-05-10T14:51:04;7.37;;;6.77;;
4766;SDS011;2397;53.576;9.746;2023-05-10T14:53:30;8.20;;;6.80;;
4766;SDS011;2397;53.576;9.746;2023-05-10T14:55:57;8.23;;;7.43;;
4766;SDS011;2397;53.576;9.746;2023-05-10T14:58:24;7.73;;;7.03;;
4766;SDS011;2397;53.576;9.746;2023-05-10T15:00:50;7.43;;;6.83;;
4766;SDS011;2397;53.576;9.746;2023-05-10T15:03:17;7.67;;;7.07;;
4766;SDS011;2397;53.576;9.746;2023-05-10T15:05:44;7.87;;;7.20;;
4766;SDS011;2397;53.576;9.746;2023-05-10T15:08:11;10.00;;;6.80;;
4766;SDS011;2397;53.576;9.746;2023-05-10T15:10:39;8.30;;;7.50;;
4766;SDS011;2397;53.576;9.746;2023-05-10T15:13:05;7.30;;;6.77;;
4766;SDS011;2397;53.576;9.746;2023-05-10T15:15:32;6.57;;;6.10;;
4766;SDS011;2397;53.576;9.746;2023-05-10T15:17:59;7.33;;;6.73;;
4766;SDS011;2397;53.576;9.746;2023-05-10T15:20:25;7.27;;;6.60;;
4766;SDS011;2397;53.576;9.746;2023-05-10T15:22:52;7.00;;;6.40;;
4766;SDS011;2397;53.576;9.746;2023-05-10T15:25:19;7.63;;;7.00;;
4766;SDS011;2397;53.576;9.746;2023-05-10T15:27:46;7.67;;;6.83;;
4766;SDS011;2397;53.576;9.746;2023-05-10T15:30:12;6.00;;;5.47;;
4766;SDS011;2397;53.576;9.746;2023-05-10T15:32:39;7.03;;;6.40;;
4766;SDS011;2397;53.576;9.746;2023-05-10T15:35:09;6.80;;;6.30;;
4766;SDS011;2397;53.576;9.746;2023-05-10T15:37:37;8.47;;;7.70;;
4766;SDS011;2397;53.576;9.746;2023-05-10T15:40:04;9.57;;;8.67;;
4766;SDS011;2397;53.576;9.746;2023-05-10T15:42:31;8.57;;;7.87;;
4766;SDS011;2397;53.576;9.746;2023-05-10T15:44:58;7.73;;;7.13;;
4766;SDS011;2397;53.576;9.746;2023-05-10T15:47:25;7.80;;;7.20;;
4766;SDS011;2397;53.576;9.746;2023-05-10T15:49:53;6.27;;;5.77;;
4766;SDS011;2397;53.576;9.746;2023-05-10T15:52:20;6.60;;;6.10;;
4766;SDS011;2397;53.576;9.746;2023-05-10T15:54:47;6.90;;;6.33;;
4766;SDS011;2397;53.576;9.746;2023-05-10T15:57:13;6.40;;;5.90;;
4766;SDS011;2397;53.576;9.746;2023-05-10T15:59:40;6.10;;;5.60;;
4766;SDS011;2397;53.576;9.746;2023-05-10T16:02:07;6.47;;;5.97;;
4766;SDS011;2397;53.576;9.746;2023-05-10T16:04:36;6.43;;;5.93;;